createdAt,value
2023-04-20T00:00:11.130Z,11.85
2023-04-20T00:02:41.879Z,13.18
2023-04-20T00:05:10.892Z,13.02
2023-04-20T00:07:38.713Z,13.90
2023-04-20T00:10:07.127Z,14.15
2023-04-20T00:12:34.568Z,15.40
2023-04-20T00:15:02.091Z,14.93
2023-04-20T00:17:29.575Z,13.65
2023-04-20T00:19:57.110Z,14.73
2023-04-20T00:22:25.327Z,13.00
2023-04-20T00:24:52.716Z,12.90
2023-04-20T00:27:20.105Z,13.00
2023-04-20T00:29:47.603Z,12.30
2023-04-20T00:32:15.057Z,11.30
2023-04-20T00:34:42.468Z,11.82
2023-04-20T00:37:09.923Z,11.23
2023-04-20T00:39:37.431Z,11.68
2023-04-20T00:42:08.845Z,10.95
2023-04-20T00:44:36.299Z,11.00
2023-04-20T00:47:03.722Z,10.27
2023-04-20T00:49:33.690Z,9.90
2023-04-20T00:52:01.579Z,9.80
2023-04-20T00:54:30.409Z,9.95
2023-04-20T00:56:59.605Z,9.48
2023-04-20T00:59:27.515Z,9.10
2023-04-20T01:01:54.921Z,9.25
2023-04-20T01:04:22.413Z,8.77
2023-04-20T01:06:51.060Z,9.35
2023-04-20T01:09:18.633Z,8.57
2023-04-20T01:11:46.241Z,8.93
2023-04-20T01:14:17.009Z,9.23
2023-04-20T01:16:44.992Z,9.50
2023-04-20T01:19:13.756Z,9.65
2023-04-20T01:21:41.522Z,8.68
2023-04-20T01:24:09.011Z,9.18
2023-04-20T01:26:36.461Z,9.60
2023-04-20T01:29:04.132Z,8.85
2023-04-20T01:31:31.809Z,9.23
2023-04-20T01:33:59.325Z,9.57
2023-04-20T01:36:27.148Z,9.73
2023-04-20T01:38:54.634Z,9.60
2023-04-20T01:41:22.172Z,9.95
2023-04-20T01:43:49.652Z,10.23
2023-04-20T01:46:17.098Z,9.98
2023-04-20T01:48:44.618Z,8.85
2023-04-20T01:51:11.964Z,9.98
2023-04-20T01:53:40.127Z,9.25
2023-04-20T01:56:08.156Z,9.73
2023-04-20T01:58:35.819Z,9.88
2023-04-20T02:01:03.405Z,9.35
2023-04-20T02:03:31.061Z,8.98
2023-04-20T02:05:58.567Z,8.38
2023-04-20T02:08:30.402Z,9.10
2023-04-20T02:10:57.838Z,8.65
2023-04-20T02:13:25.636Z,8.95
2023-04-20T02:15:53.262Z,8.30
2023-04-20T02:18:22.989Z,8.63
2023-04-20T02:20:50.896Z,8.88
2023-04-20T02:23:18.332Z,8.95
2023-04-20T02:25:45.776Z,9.70
2023-04-20T02:28:13.180Z,9.20
2023-04-20T02:30:40.721Z,9.40
2023-04-20T02:33:08.334Z,9.68
2023-04-20T02:35:36.143Z,8.65
2023-04-20T02:38:03.641Z,9.55
2023-04-20T02:40:31.116Z,9.52
2023-04-20T02:42:58.817Z,9.23
2023-04-20T02:45:27.961Z,10.27
2023-04-20T02:47:55.769Z,9.85
2023-04-20T02:50:23.285Z,9.82
2023-04-20T02:53:02.555Z,8.75
2023-04-20T02:55:33.088Z,8.40
2023-04-20T03:01:05.708Z,8.45
2023-04-20T03:03:34.688Z,8.80
2023-04-20T03:06:02.306Z,8.57
2023-04-20T03:08:29.881Z,9.30
2023-04-20T03:11:01.927Z,8.82
2023-04-20T03:13:29.380Z,8.98
2023-04-20T03:16:00.839Z,9.35
2023-04-20T03:18:51.501Z,8.52
2023-04-20T03:21:18.927Z,8.45
2023-04-20T03:23:46.560Z,9.15
2023-04-20T03:26:14.099Z,8.88
2023-04-20T03:29:05.626Z,9.57
2023-04-20T03:31:33.286Z,9.38
2023-04-20T03:34:00.834Z,8.98
2023-04-20T03:36:32.579Z,8.27
2023-04-20T03:39:00.067Z,8.02
2023-04-20T03:41:27.890Z,9.05
2023-04-20T03:43:56.000Z,8.60
2023-04-20T03:46:23.659Z,9.27
2023-04-20T03:48:51.130Z,8.45
2023-04-20T03:51:18.515Z,8.77
2023-04-20T03:53:45.962Z,9.43
2023-04-20T03:56:14.564Z,8.93
2023-04-20T03:58:43.077Z,9.23
2023-04-20T04:01:17.364Z,8.70
2023-04-20T04:03:48.332Z,9.18
2023-04-20T04:06:16.041Z,9.68
2023-04-20T04:08:43.620Z,9.30
2023-04-20T04:11:11.276Z,9.23
2023-04-20T04:13:38.649Z,9.10
2023-04-20T04:16:08.644Z,9.43
2023-04-20T04:18:36.559Z,8.27
2023-04-20T04:21:10.464Z,8.45
2023-04-20T04:23:42.315Z,8.88
2023-04-20T04:26:15.771Z,9.00
2023-04-20T04:28:49.360Z,8.60
2023-04-20T04:31:19.851Z,9.23
2023-04-20T04:33:48.043Z,9.68
2023-04-20T04:36:26.936Z,9.10
2023-04-20T04:38:56.441Z,9.95
2023-04-20T04:41:24.149Z,9.27
2023-04-20T04:43:52.379Z,9.98
2023-04-20T04:46:32.224Z,10.25
2023-04-20T04:49:02.886Z,10.27
2023-04-20T04:51:31.728Z,10.65
2023-04-20T04:53:59.362Z,10.65
2023-04-20T04:56:26.807Z,9.75
2023-04-20T04:58:54.317Z,10.77
2023-04-20T05:01:22.075Z,11.65
2023-04-20T05:03:49.958Z,10.02
2023-04-20T05:06:17.445Z,9.55
2023-04-20T05:08:44.939Z,8.13
2023-04-20T05:11:12.312Z,8.88
2023-04-20T05:13:39.715Z,8.15
2023-04-20T05:16:07.333Z,9.30
2023-04-20T05:18:34.828Z,9.20
2023-04-20T05:21:02.436Z,7.63
2023-04-20T05:23:29.809Z,8.05
2023-04-20T05:25:57.283Z,8.43
2023-04-20T05:28:24.686Z,7.35
2023-04-20T05:30:55.118Z,7.35
2023-04-20T05:33:22.750Z,7.55
2023-04-20T05:35:51.595Z,8.20
2023-04-20T05:38:19.007Z,6.80
2023-04-20T05:40:46.410Z,7.10
2023-04-20T05:43:13.842Z,7.57
2023-04-20T05:45:41.186Z,5.88
2023-04-20T05:48:08.628Z,5.63
2023-04-20T05:50:36.114Z,6.03
2023-04-20T05:53:03.551Z,6.75
2023-04-20T05:55:30.928Z,5.40
2023-04-20T05:57:58.352Z,5.85
2023-04-20T06:00:26.289Z,8.85
2023-04-20T06:02:55.088Z,6.72
2023-04-20T06:05:22.847Z,7.28
2023-04-20T06:07:50.393Z,6.50
2023-04-20T06:10:17.834Z,6.13
2023-04-20T06:12:45.448Z,6.93
2023-04-20T06:15:12.893Z,6.00
2023-04-20T06:17:40.642Z,6.85
2023-04-20T06:20:10.308Z,5.75
2023-04-20T06:22:42.372Z,5.82
2023-04-20T06:25:10.705Z,6.65
2023-04-20T06:27:38.208Z,5.18
2023-04-20T06:30:06.642Z,6.07
2023-04-20T06:32:34.117Z,6.32
2023-04-20T06:35:01.596Z,7.30
2023-04-20T06:37:29.145Z,5.63
2023-04-20T06:39:56.629Z,5.32
2023-04-20T06:42:24.123Z,5.53
2023-04-20T06:44:51.596Z,6.38
2023-04-20T06:47:19.143Z,5.72
2023-04-20T06:49:46.580Z,6.22
2023-04-20T06:52:13.914Z,6.10
2023-04-20T06:54:41.257Z,5.60
2023-04-20T06:57:08.673Z,4.68
2023-04-20T06:59:36.215Z,5.35
2023-04-20T07:02:03.838Z,5.45
2023-04-20T07:04:31.542Z,5.03
2023-04-20T07:06:58.953Z,4.68
2023-04-20T07:09:27.034Z,5.43
2023-04-20T07:11:56.387Z,5.88
2023-04-20T07:14:23.899Z,6.55
2023-04-20T07:16:54.900Z,7.13
2023-04-20T07:19:22.359Z,8.20
2023-04-20T07:21:49.797Z,6.95
2023-04-20T07:24:17.268Z,6.10
2023-04-20T07:26:44.768Z,5.43
2023-04-20T07:29:12.126Z,5.78
2023-04-20T07:31:39.551Z,5.78
2023-04-20T07:34:07.290Z,5.30
2023-04-20T07:36:34.764Z,4.97
2023-04-20T07:39:02.138Z,5.18
2023-04-20T07:41:29.561Z,4.93
2023-04-20T07:43:56.987Z,5.22
2023-04-20T07:46:24.613Z,4.43
2023-04-20T07:48:52.011Z,4.07
2023-04-20T07:51:19.447Z,4.70
2023-04-20T07:53:47.264Z,4.43
2023-04-20T07:56:14.669Z,4.00
2023-04-20T07:58:42.031Z,3.25
2023-04-20T08:01:11.011Z,4.07
2023-04-20T08:03:38.657Z,3.97
2023-04-20T08:06:06.672Z,4.43
2023-04-20T08:08:34.132Z,3.65
2023-04-20T08:11:01.568Z,4.00
2023-04-20T08:13:29.224Z,4.45
2023-04-20T08:15:56.625Z,4.15
2023-04-20T08:18:24.152Z,3.63
2023-04-20T08:20:51.585Z,3.67
2023-04-20T08:23:18.977Z,3.17
2023-04-20T08:25:46.432Z,4.10
2023-04-20T08:28:19.710Z,3.65
2023-04-20T08:31:00.209Z,3.90
2023-04-20T08:33:27.626Z,3.80
2023-04-20T08:35:55.021Z,4.10
2023-04-20T08:38:32.813Z,3.83
2023-04-20T08:41:02.270Z,4.00
2023-04-20T08:43:30.088Z,4.18
2023-04-20T08:46:05.799Z,3.63
2023-04-20T08:48:37.867Z,3.47
2023-04-20T08:51:06.264Z,4.20
2023-04-20T08:53:33.971Z,3.58
2023-04-20T08:56:01.477Z,4.70
2023-04-20T08:58:33.768Z,3.90
2023-04-20T09:03:36.836Z,3.25
2023-04-20T09:06:15.238Z,4.45
2023-04-20T09:08:46.184Z,3.38
2023-04-20T09:11:27.507Z,3.67
2023-04-20T09:14:12.677Z,4.45
2023-04-20T09:16:54.272Z,4.68
2023-04-20T09:19:26.311Z,3.77
2023-04-20T09:21:56.142Z,2.97
2023-04-20T09:24:31.536Z,3.30
2023-04-20T09:26:59.343Z,4.20
2023-04-20T09:29:26.846Z,3.83
2023-04-20T09:31:54.848Z,3.85
2023-04-20T09:34:24.034Z,4.13
2023-04-20T09:36:55.515Z,4.30
2023-04-20T09:39:24.282Z,3.93
2023-04-20T09:41:52.686Z,3.80
2023-04-20T09:44:20.502Z,3.40
2023-04-20T09:46:47.894Z,3.58
2023-04-20T09:49:15.416Z,4.07
2023-04-20T09:51:46.770Z,4.30
2023-04-20T09:54:15.812Z,3.57
2023-04-20T09:56:43.786Z,3.78
2023-04-20T09:59:12.058Z,4.40
2023-04-20T10:01:39.535Z,4.45
2023-04-20T10:04:09.775Z,3.95
2023-04-20T10:06:37.919Z,4.63
2023-04-20T10:09:07.526Z,4.65
2023-04-20T10:11:53.272Z,4.30
2023-04-20T10:14:26.169Z,4.30
2023-04-20T10:17:05.146Z,4.80
2023-04-20T10:19:46.959Z,3.97
2023-04-20T10:22:30.795Z,4.75
2023-04-20T10:24:58.650Z,5.07
2023-04-20T10:27:26.219Z,5.60
2023-04-20T10:29:53.642Z,5.40
2023-04-20T10:32:28.943Z,5.88
2023-04-20T10:35:04.849Z,5.60
2023-04-20T10:37:32.903Z,6.40
2023-04-20T10:40:00.833Z,6.32
2023-04-20T10:42:29.733Z,6.13
2023-04-20T10:44:57.278Z,6.13
2023-04-20T10:47:32.407Z,9.25
2023-04-20T10:50:10.584Z,7.10
2023-04-20T10:52:39.936Z,6.65
2023-04-20T10:55:18.806Z,6.22
2023-04-20T10:57:46.219Z,7.80
2023-04-20T11:00:25.439Z,7.45
2023-04-20T11:02:54.972Z,7.68
2023-04-20T11:05:27.321Z,7.72
2023-04-20T11:10:40.129Z,8.82
2023-04-20T11:13:08.171Z,10.63
2023-04-20T11:15:36.264Z,11.75
2023-04-20T11:18:11.957Z,12.85
2023-04-20T11:20:53.998Z,12.07
2023-04-20T11:23:22.936Z,11.35
2023-04-20T11:25:57.313Z,11.98
2023-04-20T11:28:25.951Z,11.95
2023-04-20T11:30:54.175Z,12.85
2023-04-20T11:33:33.208Z,12.45
2023-04-20T11:36:02.203Z,12.63
2023-04-20T11:38:31.549Z,12.52
2023-04-20T11:41:04.472Z,12.50
2023-04-20T11:43:32.531Z,12.43
2023-04-20T11:46:05.475Z,13.15
2023-04-20T11:48:32.885Z,12.68
2023-04-20T11:51:00.252Z,14.65
2023-04-20T11:53:27.577Z,15.57
2023-04-20T11:55:54.954Z,12.32
2023-04-20T11:58:22.534Z,11.73
2023-04-20T12:00:49.932Z,12.50
2023-04-20T12:03:17.770Z,12.52
2023-04-20T12:05:45.261Z,12.35
2023-04-20T12:08:12.829Z,12.43
2023-04-20T12:10:40.288Z,11.60
2023-04-20T12:13:07.687Z,11.25
2023-04-20T12:15:35.138Z,11.60
2023-04-20T12:18:02.623Z,11.82
2023-04-20T12:20:30.092Z,12.00
2023-04-20T12:22:58.989Z,11.52
2023-04-20T12:25:26.583Z,11.20
2023-04-20T12:27:54.229Z,12.20
2023-04-20T12:30:21.602Z,11.57
2023-04-20T12:32:48.990Z,10.88
2023-04-20T12:35:16.471Z,10.35
2023-04-20T12:37:43.850Z,11.23
2023-04-20T12:40:11.572Z,9.93
2023-04-20T12:42:39.053Z,11.90
2023-04-20T12:45:07.046Z,10.77
2023-04-20T12:47:34.458Z,10.77
2023-04-20T12:50:02.417Z,10.43
2023-04-20T12:52:29.864Z,9.40
2023-04-20T12:54:57.274Z,9.40
2023-04-20T12:57:24.709Z,8.80
2023-04-20T12:59:52.191Z,7.97
2023-04-20T13:02:19.730Z,8.27
2023-04-20T13:04:47.326Z,7.88
2023-04-20T13:07:14.655Z,8.15
2023-04-20T13:09:42.030Z,7.78
2023-04-20T13:12:09.946Z,6.43
2023-04-20T13:14:37.386Z,6.20
2023-04-20T13:17:06.826Z,6.78
2023-04-20T13:19:34.378Z,6.13
2023-04-20T13:22:01.793Z,6.43
2023-04-20T13:24:29.333Z,7.20
2023-04-20T13:26:57.309Z,6.75
2023-04-20T13:29:25.660Z,6.13
2023-04-20T13:31:53.090Z,7.53
2023-04-20T13:34:20.836Z,7.63
2023-04-20T13:36:48.962Z,7.47
2023-04-20T13:39:17.727Z,7.75
2023-04-20T13:41:45.616Z,8.00
2023-04-20T13:44:16.142Z,8.25
2023-04-20T13:46:45.182Z,7.80
2023-04-20T13:49:13.488Z,8.20
2023-04-20T13:51:41.447Z,7.78
2023-04-20T13:54:08.886Z,7.68
2023-04-20T13:56:36.327Z,7.53
2023-04-20T13:59:04.191Z,7.82
2023-04-20T14:01:31.825Z,7.60
2023-04-20T14:03:59.605Z,7.40
2023-04-20T14:06:27.698Z,7.30
2023-04-20T14:08:55.247Z,6.18
2023-04-20T14:11:22.757Z,6.55
2023-04-20T14:13:50.292Z,7.80
2023-04-20T14:16:17.749Z,8.15
2023-04-20T14:18:46.144Z,7.53
2023-04-20T14:21:13.575Z,7.00
2023-04-20T14:23:41.011Z,8.93
2023-04-20T14:26:08.499Z,8.02
2023-04-20T14:28:35.989Z,7.97
2023-04-20T14:31:03.557Z,8.27
2023-04-20T14:33:30.991Z,8.18
2023-04-20T14:35:58.496Z,7.43
2023-04-20T14:38:25.966Z,7.50
2023-04-20T14:40:53.879Z,6.85
2023-04-20T14:43:21.366Z,7.05
2023-04-20T14:45:50.527Z,8.10
2023-04-20T14:48:18.067Z,7.85
2023-04-20T14:50:45.428Z,7.32
2023-04-20T14:53:12.803Z,7.72
2023-04-20T14:55:40.808Z,7.15
2023-04-20T14:58:08.358Z,6.95
2023-04-20T15:00:35.725Z,7.97
2023-04-20T15:03:03.960Z,6.60
2023-04-20T15:05:31.677Z,7.88
2023-04-20T15:07:59.126Z,8.48
2023-04-20T15:10:26.528Z,8.15
2023-04-20T15:12:53.968Z,7.07
2023-04-20T15:15:21.611Z,7.43
2023-04-20T15:17:49.025Z,7.80
2023-04-20T15:20:16.751Z,8.15
2023-04-20T15:22:44.281Z,7.43
2023-04-20T15:25:12.151Z,7.40
2023-04-20T15:27:39.709Z,7.63
2023-04-20T15:30:08.112Z,8.30
2023-04-20T15:32:35.554Z,7.70
2023-04-20T15:35:02.976Z,8.38
2023-04-20T15:37:30.377Z,7.90
2023-04-20T15:39:59.205Z,7.35
2023-04-20T15:42:27.555Z,7.72
2023-04-20T15:44:54.904Z,10.10
2023-04-20T15:47:22.338Z,7.88
2023-04-20T15:49:49.792Z,7.38
2023-04-20T15:52:17.227Z,7.25
2023-04-20T15:54:47.335Z,6.75
2023-04-20T15:57:14.737Z,6.82
2023-04-20T15:59:42.098Z,6.40
2023-04-20T16:02:09.567Z,7.05
2023-04-20T16:04:37.128Z,6.20
2023-04-20T16:07:04.843Z,7.20
2023-04-20T16:09:32.194Z,5.18
2023-04-20T16:11:59.620Z,5.85
2023-04-20T16:14:27.044Z,4.53
2023-04-20T16:16:54.936Z,5.20
2023-04-20T16:19:22.337Z,4.57
2023-04-20T16:21:49.752Z,4.65
2023-04-20T16:24:17.395Z,4.93
2023-04-20T16:26:45.165Z,3.75
2023-04-20T16:29:12.568Z,4.97
2023-04-20T16:31:41.101Z,4.93
2023-04-20T16:34:08.515Z,4.85
2023-04-20T16:36:35.903Z,4.45
2023-04-20T16:39:05.860Z,4.93
2023-04-20T16:41:33.372Z,4.63
2023-04-20T16:44:00.798Z,4.03
2023-04-20T16:46:28.278Z,4.03
2023-04-20T16:48:55.695Z,4.75
2023-04-20T16:51:23.257Z,3.88
2023-04-20T16:53:51.852Z,4.20
2023-04-20T16:56:19.266Z,3.90
2023-04-20T16:58:47.002Z,3.72
2023-04-20T17:01:14.818Z,3.90
2023-04-20T17:03:42.489Z,4.70
2023-04-20T17:06:10.110Z,4.25
2023-04-20T17:08:37.748Z,3.80
2023-04-20T17:11:05.986Z,4.15
2023-04-20T17:13:34.163Z,3.85
2023-04-20T17:16:01.703Z,3.97
2023-04-20T17:18:29.168Z,4.00
2023-04-20T17:21:00.870Z,3.90
2023-04-20T17:23:28.342Z,3.97
2023-04-20T17:25:56.028Z,3.90
2023-04-20T17:28:23.605Z,3.67
2023-04-20T17:30:51.056Z,5.32
2023-04-20T17:33:18.560Z,4.22
2023-04-20T17:35:46.558Z,4.97
2023-04-20T17:38:14.050Z,4.55
2023-04-20T17:40:41.449Z,4.38
2023-04-20T17:43:08.943Z,5.10
2023-04-20T17:45:37.209Z,4.57
2023-04-20T17:48:05.157Z,4.03
2023-04-20T17:50:33.280Z,4.72
2023-04-20T17:53:06.507Z,5.40
2023-04-20T17:55:35.143Z,4.78
2023-04-20T17:58:02.722Z,4.90
2023-04-20T18:00:30.186Z,4.50
2023-04-20T18:03:00.153Z,4.97
2023-04-20T18:05:27.732Z,5.53
2023-04-20T18:07:55.745Z,4.68
2023-04-20T18:10:23.121Z,5.88
2023-04-20T18:12:50.494Z,6.93
2023-04-20T18:15:17.963Z,6.13
2023-04-20T18:17:45.545Z,6.72
2023-04-20T18:20:12.998Z,6.05
2023-04-20T18:22:40.491Z,6.22
2023-04-20T18:25:08.238Z,6.63
2023-04-20T18:27:35.726Z,6.47
2023-04-20T18:30:03.585Z,7.25
2023-04-20T18:32:31.434Z,7.00
2023-04-20T18:35:00.289Z,6.80
2023-04-20T18:37:27.692Z,7.53
2023-04-20T18:39:55.302Z,8.30
2023-04-20T18:42:22.810Z,7.28
2023-04-20T18:44:51.356Z,6.95
2023-04-20T18:47:20.647Z,7.32
2023-04-20T18:49:48.341Z,8.23
2023-04-20T18:52:15.826Z,6.85
2023-04-20T18:54:43.238Z,7.38
2023-04-20T18:57:10.563Z,7.25
2023-04-20T18:59:38.005Z,7.80
2023-04-20T19:02:07.019Z,7.82
2023-04-20T19:04:36.291Z,7.60
2023-04-20T19:07:03.746Z,7.88
2023-04-20T19:09:31.291Z,7.28
2023-04-20T19:11:58.721Z,7.13
2023-04-20T19:14:26.201Z,8.07
2023-04-20T19:16:53.711Z,7.78
2023-04-20T19:19:21.230Z,7.20
2023-04-20T19:21:48.705Z,6.97
2023-04-20T19:24:16.496Z,6.15
2023-04-20T19:26:44.243Z,7.10
2023-04-20T19:29:12.621Z,6.93
2023-04-20T19:31:42.024Z,6.82
2023-04-20T19:34:09.632Z,7.22
2023-04-20T19:36:36.993Z,6.85
2023-04-20T19:39:06.968Z,6.38
2023-04-20T19:41:34.725Z,6.68
2023-04-20T19:44:06.150Z,7.10
2023-04-20T19:46:33.949Z,7.00
2023-04-20T19:49:01.684Z,7.38
2023-04-20T19:51:31.060Z,6.75
2023-04-20T19:54:00.467Z,6.35
2023-04-20T19:56:27.955Z,6.93
2023-04-20T19:58:55.319Z,5.65
2023-04-20T20:01:22.745Z,6.25
2023-04-20T20:03:50.290Z,6.78
2023-04-20T20:06:18.439Z,6.55
2023-04-20T20:08:45.934Z,6.60
2023-04-20T20:11:13.332Z,6.63
2023-04-20T20:13:40.735Z,6.78
2023-04-20T20:16:10.258Z,6.20
2023-04-20T20:18:38.225Z,7.32
2023-04-20T20:21:05.689Z,7.20
2023-04-20T20:23:33.260Z,7.40
2023-04-20T20:26:00.807Z,6.40
2023-04-20T20:28:28.480Z,6.10
2023-04-20T20:30:56.310Z,6.60
2023-04-20T20:33:23.796Z,8.05
2023-04-20T20:35:51.124Z,6.75
2023-04-20T20:38:20.880Z,6.90
2023-04-20T20:40:50.571Z,6.00
2023-04-20T20:43:18.943Z,7.25
2023-04-20T20:45:47.339Z,6.97
2023-04-20T20:48:14.691Z,6.60
2023-04-20T20:50:42.180Z,6.75
2023-04-20T20:53:09.618Z,6.25
2023-04-20T20:55:37.070Z,6.03
2023-04-20T20:58:04.604Z,6.45
2023-04-20T21:00:33.407Z,6.25
2023-04-20T21:03:01.322Z,6.28
2023-04-20T21:05:28.836Z,6.57
2023-04-20T21:07:56.366Z,7.68
2023-04-20T21:10:23.963Z,7.55
2023-04-20T21:12:51.335Z,6.45
2023-04-20T21:15:18.779Z,6.32
2023-04-20T21:17:46.262Z,6.78
2023-04-20T21:20:13.773Z,6.43
2023-04-20T21:22:41.200Z,5.97
2023-04-20T21:25:08.738Z,5.65
2023-04-20T21:27:36.134Z,6.22
2023-04-20T21:30:04.749Z,5.90
2023-04-20T21:32:32.138Z,6.47
2023-04-20T21:34:59.513Z,6.60
2023-04-20T21:37:27.061Z,6.80
2023-04-20T21:39:54.443Z,6.75
2023-04-20T21:42:21.862Z,7.05
2023-04-20T21:44:49.230Z,6.30
2023-04-20T21:47:16.598Z,6.07
2023-04-20T21:49:43.953Z,6.95
2023-04-20T21:52:11.352Z,5.47
2023-04-20T21:54:40.805Z,6.03
2023-04-20T21:57:08.234Z,5.93
2023-04-20T21:59:35.726Z,5.40
2023-04-20T22:02:04.447Z,4.60
2023-04-20T22:04:32.237Z,5.53
2023-04-20T22:07:00.416Z,4.88
2023-04-20T22:09:27.799Z,4.13
2023-04-20T22:11:55.815Z,4.75
2023-04-20T22:14:23.600Z,4.53
2023-04-20T22:16:52.269Z,3.80
2023-04-20T22:19:19.817Z,4.38
2023-04-20T22:21:47.285Z,4.70
2023-04-20T22:24:14.656Z,4.35
2023-04-20T22:26:42.223Z,4.47
2023-04-20T22:29:09.579Z,4.78
2023-04-20T22:31:37.014Z,4.35
2023-04-20T22:34:04.387Z,4.32
2023-04-20T22:36:32.562Z,4.55
2023-04-20T22:38:59.930Z,3.80
2023-04-20T22:41:27.363Z,3.63
2023-04-20T22:43:54.698Z,3.60
2023-04-20T22:46:22.163Z,3.65
2023-04-20T22:48:49.547Z,3.97
2023-04-20T22:51:17.328Z,4.35
2023-04-20T22:53:44.919Z,3.63
2023-04-20T22:56:12.297Z,3.47
2023-04-20T22:58:39.673Z,3.15
2023-04-20T23:01:07.078Z,3.53
2023-04-20T23:03:34.548Z,3.10
2023-04-20T23:06:02.017Z,3.20
2023-04-20T23:08:29.611Z,2.88
2023-04-20T23:10:57.116Z,2.70
2023-04-20T23:13:26.185Z,3.35
2023-04-20T23:15:53.967Z,3.20
2023-04-20T23:18:21.523Z,2.60
2023-04-20T23:20:49.052Z,2.60
2023-04-20T23:23:16.504Z,3.03
2023-04-20T23:25:43.996Z,2.67
2023-04-20T23:28:11.451Z,2.67
2023-04-20T23:30:38.918Z,2.65
2023-04-20T23:33:06.418Z,2.58
2023-04-20T23:35:34.061Z,2.50
2023-04-20T23:38:02.056Z,2.88
2023-04-20T23:40:29.596Z,2.65
2023-04-20T23:42:57.041Z,2.40
2023-04-20T23:45:24.605Z,2.90
2023-04-20T23:47:52.002Z,2.75
2023-04-20T23:50:19.510Z,2.40
2023-04-20T23:52:46.988Z,2.67
2023-04-20T23:55:14.367Z,2.53
2023-04-20T23:57:41.786Z,2.83
